Aérodrome :
LOGIN :

S'inscrire | Disclaimer

   EN    FR    IT 

 










Légende :    VFR   VFR Marginal   IFR   IFR Intensif   IFR Très Intensif
Visi : 
Plafond : 
>= 8 km
>= 3000ft
5 à 8 km
1000 à 3000 ft
1500m à 5 km
500 à 1000 ft
800 à 1500m
200 à 500 ft
< 800m
< 200 ft
Symboles :   Orages  Brouillard  Fortes neiges  Fortes précipitations  Vent > 20 kt
SIGMETs :   Divers  Orages  Givrage  Turbulence  Onde Orograph.  Cendres Volcan.






- Altitude de l'aérodrome : 158 ft
- Code IATA : QAR


EHDL - Deelen Airbase

DERNIER METAR :
  • 240625Z AUTO VRB09KT 9999 FEW012 BKN019 OVC022 12/10 Q1010 WHT

METARs EXPIRÉS :
  • 240555Z AUTO 20009KT 140V230 9999 SCT027 OVC037 12/11 Q1010 BLU
  • 240525Z AUTO VRB09KT 9999 FEW028 BKN031 OVC037 12/11 Q1011 BLU
  • 240455Z AUTO VRB08KT 9999 SCT030 OVC037 12/11 Q1011 BLU
  • 240425Z AUTO 21009KT 150V270 9999 OVC038 12/11 Q1010 BLU
  • 240355Z AUTO 21011KT 160V270 9999 BKN016 BKN019 BKN041 12/11 Q1010 WHT

Prévision TAF périmée.



MET'MAP, la Météo Aéronautique d'un coup d'oeil ! - Copyright ORBIFLY Décembre 2007 - Disclaimer

ORBIFLY MET'MAP TEAM :

Programmation & Développement : Alexandra Zaïnal
Sur une idée originale de : Baudouin d'Aumeries
Assistance à la programmation : Marc-Olivier Méhu
Soutien technique & logistique : Manuel Goepfert

Contact : metmap@orbifly.com




SOURCES & CREDITS :

   NOAA